sensor_id;sensor_type;location;lat;lon;timestamp;P1;durP1;ratioP1;P2;durP2;ratioP2
78891;SDS011;68368;51.728;5.248;2024-03-02T10:23:53;2.30;;;0.70;;
78891;SDS011;68368;51.728;5.248;2024-03-02T10:26:13;1.60;;;0.40;;
78891;SDS011;68368;51.728;5.248;2024-03-02T10:28:21;2.40;;;0.60;;
78891;SDS011;68368;51.728;5.248;2024-03-02T10:30:25;1.90;;;0.60;;
78891;SDS011;68368;51.728;5.248;2024-03-02T10:32:31;1.90;;;0.60;;
78891;SDS011;68368;51.728;5.248;2024-03-02T10:34:36;2.40;;;0.70;;
78891;SDS011;68368;51.728;5.248;2024-03-02T10:36:44;1.70;;;0.70;;
78891;SDS011;68368;51.728;5.248;2024-03-02T10:38:51;2.80;;;0.70;;
78891;SDS011;68368;51.728;5.248;2024-03-02T10:40:56;2.00;;;0.70;;
78891;SDS011;68368;51.728;5.248;2024-03-02T10:43:03;1.70;;;0.50;;
78891;SDS011;68368;51.728;5.248;2024-03-02T10:45:10;4.20;;;0.80;;
78891;SDS011;68368;51.728;5.248;2024-03-02T10:47:15;2.50;;;0.50;;
78891;SDS011;68368;51.728;5.248;2024-03-02T10:49:23;1.90;;;0.60;;
78891;SDS011;68368;51.728;5.248;2024-03-02T10:51:31;2.30;;;0.60;;
78891;SDS011;68368;51.728;5.248;2024-03-02T10:53:36;3.00;;;0.60;;
78891;SDS011;68368;51.728;5.248;2024-03-02T10:55:41;3.50;;;1.00;;
78891;SDS011;68368;51.728;5.248;2024-03-02T10:57:51;2.00;;;0.60;;
78891;SDS011;68368;51.728;5.248;2024-03-02T11:00:00;3.10;;;0.50;;
78891;SDS011;68368;51.728;5.248;2024-03-02T11:02:11;1.80;;;0.70;;
78891;SDS011;68368;51.728;5.248;2024-03-02T11:04:19;2.90;;;0.60;;
78891;SDS011;68368;51.728;5.248;2024-03-02T11:06:27;4.70;;;0.80;;
78891;SDS011;68368;51.728;5.248;2024-03-02T11:10:41;1.90;;;0.50;;
78891;SDS011;68368;51.728;5.248;2024-03-02T11:12:55;2.20;;;0.50;;
78891;SDS011;68368;51.728;5.248;2024-03-02T11:15:04;3.00;;;0.60;;
78891;SDS011;68368;51.728;5.248;2024-03-02T11:17:17;2.50;;;0.70;;
78891;SDS011;68368;51.728;5.248;2024-03-02T11:19:22;3.30;;;0.50;;
78891;SDS011;68368;51.728;5.248;2024-03-02T11:21:28;1.70;;;0.50;;
78891;SDS011;68368;51.728;5.248;2024-03-02T11:23:34;4.50;;;0.60;;
78891;SDS011;68368;51.728;5.248;2024-03-02T11:25:39;2.50;;;0.70;;
78891;SDS011;68368;51.728;5.248;2024-03-02T11:28:04;2.50;;;0.50;;
78891;SDS011;68368;51.728;5.248;2024-03-02T11:30:13;5.20;;;0.80;;
78891;SDS011;68368;51.728;5.248;2024-03-02T11:32:57;7.00;;;0.70;;
78891;SDS011;68368;51.728;5.248;2024-03-02T11:35:03;2.90;;;0.80;;
78891;SDS011;68368;51.728;5.248;2024-03-02T11:37:09;2.40;;;0.60;;
78891;SDS011;68368;51.728;5.248;2024-03-02T11:39:15;3.40;;;0.70;;
78891;SDS011;68368;51.728;5.248;2024-03-02T11:41:21;2.30;;;0.60;;
78891;SDS011;68368;51.728;5.248;2024-03-02T11:43:28;2.50;;;0.70;;
78891;SDS011;68368;51.728;5.248;2024-03-02T11:45:33;3.60;;;1.00;;
78891;SDS011;68368;51.728;5.248;2024-03-02T11:47:40;2.20;;;0.70;;
78891;SDS011;68368;51.728;5.248;2024-03-02T11:49:50;3.30;;;0.70;;
78891;SDS011;68368;51.728;5.248;2024-03-02T11:52:02;6.70;;;1.00;;
78891;SDS011;68368;51.728;5.248;2024-03-02T11:54:10;2.70;;;0.70;;
78891;SDS011;68368;51.728;5.248;2024-03-02T11:56:15;4.30;;;0.70;;
78891;SDS011;68368;51.728;5.248;2024-03-02T11:58:22;3.70;;;0.80;;
78891;SDS011;68368;51.728;5.248;2024-03-02T12:00:29;3.30;;;0.60;;
78891;SDS011;68368;51.728;5.248;2024-03-02T12:02:34;4.90;;;0.70;;
78891;SDS011;68368;51.728;5.248;2024-03-02T12:04:40;2.30;;;0.60;;
78891;SDS011;68368;51.728;5.248;2024-03-02T12:06:47;2.10;;;0.60;;
78891;SDS011;68368;51.728;5.248;2024-03-02T12:08:57;4.70;;;0.80;;
78891;SDS011;68368;51.728;5.248;2024-03-02T12:11:03;4.70;;;0.90;;
78891;SDS011;68368;51.728;5.248;2024-03-02T12:13:08;2.10;;;0.60;;
78891;SDS011;68368;51.728;5.248;2024-03-02T12:15:14;3.40;;;0.90;;
78891;SDS011;68368;51.728;5.248;2024-03-02T12:17:20;2.30;;;0.50;;
78891;SDS011;68368;51.728;5.248;2024-03-02T12:19:25;2.70;;;0.70;;
78891;SDS011;68368;51.728;5.248;2024-03-02T12:21:30;2.70;;;0.60;;
78891;SDS011;68368;51.728;5.248;2024-03-02T12:23:36;3.30;;;0.70;;
78891;SDS011;68368;51.728;5.248;2024-03-02T12:25:40;2.90;;;0.50;;
78891;SDS011;68368;51.728;5.248;2024-03-02T12:27:45;2.30;;;0.60;;
78891;SDS011;68368;51.728;5.248;2024-03-02T12:29:52;2.40;;;0.70;;
78891;SDS011;68368;51.728;5.248;2024-03-02T12:31:58;2.80;;;0.50;;
78891;SDS011;68368;51.728;5.248;2024-03-02T12:34:04;3.30;;;0.70;;
78891;SDS011;68368;51.728;5.248;2024-03-02T12:36:12;4.10;;;0.70;;
78891;SDS011;68368;51.728;5.248;2024-03-02T12:38:18;4.10;;;0.70;;
78891;SDS011;68368;51.728;5.248;2024-03-02T12:40:23;2.70;;;0.50;;
78891;SDS011;68368;51.728;5.248;2024-03-02T12:42:28;2.60;;;0.60;;
78891;SDS011;68368;51.728;5.248;2024-03-02T12:44:33;2.00;;;0.60;;
78891;SDS011;68368;51.728;5.248;2024-03-02T12:46:38;4.60;;;0.70;;
78891;SDS011;68368;51.728;5.248;2024-03-02T12:48:43;2.80;;;0.60;;
78891;SDS011;68368;51.728;5.248;2024-03-02T12:50:48;2.80;;;0.70;;
78891;SDS011;68368;51.728;5.248;2024-03-02T12:52:54;2.10;;;0.80;;
78891;SDS011;68368;51.728;5.248;2024-03-02T12:55:00;3.10;;;0.90;;
78891;SDS011;68368;51.728;5.248;2024-03-02T12:57:07;3.00;;;0.60;;
78891;SDS011;68368;51.728;5.248;2024-03-02T12:59:21;4.00;;;1.10;;
78891;SDS011;68368;51.728;5.248;2024-03-02T13:01:28;3.70;;;0.80;;
78891;SDS011;68368;51.728;5.248;2024-03-02T13:03:34;3.90;;;0.60;;
78891;SDS011;68368;51.728;5.248;2024-03-02T13:05:40;3.20;;;0.90;;
78891;SDS011;68368;51.728;5.248;2024-03-02T13:07:46;3.80;;;0.70;;
78891;SDS011;68368;51.728;5.248;2024-03-02T13:09:51;3.90;;;0.80;;
78891;SDS011;68368;51.728;5.248;2024-03-02T13:11:57;3.50;;;0.90;;
78891;SDS011;68368;51.728;5.248;2024-03-02T13:14:04;3.50;;;0.70;;
78891;SDS011;68368;51.728;5.248;2024-03-02T13:16:11;2.20;;;0.60;;
78891;SDS011;68368;51.728;5.248;2024-03-02T13:18:18;4.80;;;0.80;;
78891;SDS011;68368;51.728;5.248;2024-03-02T13:20:31;2.30;;;0.60;;
78891;SDS011;68368;51.728;5.248;2024-03-02T13:22:36;4.60;;;0.50;;
78891;SDS011;68368;51.728;5.248;2024-03-02T13:24:41;2.90;;;0.80;;
78891;SDS011;68368;51.728;5.248;2024-03-02T13:26:46;3.40;;;0.80;;
78891;SDS011;68368;51.728;5.248;2024-03-02T13:28:51;2.80;;;0.90;;
78891;SDS011;68368;51.728;5.248;2024-03-02T13:30:56;4.00;;;1.00;;
78891;SDS011;68368;51.728;5.248;2024-03-02T13:33:01;4.20;;;0.70;;
78891;SDS011;68368;51.728;5.248;2024-03-02T13:35:06;6.60;;;1.10;;
78891;SDS011;68368;51.728;5.248;2024-03-02T13:37:12;3.10;;;0.80;;
78891;SDS011;68368;51.728;5.248;2024-03-02T13:39:18;2.70;;;0.90;;
78891;SDS011;68368;51.728;5.248;2024-03-02T13:41:23;3.80;;;0.70;;
78891;SDS011;68368;51.728;5.248;2024-03-02T13:43:28;4.00;;;1.20;;
78891;SDS011;68368;51.728;5.248;2024-03-02T13:45:33;2.50;;;0.80;;
78891;SDS011;68368;51.728;5.248;2024-03-02T13:47:38;4.20;;;0.90;;
78891;SDS011;68368;51.728;5.248;2024-03-02T13:49:43;3.60;;;0.70;;
78891;SDS011;68368;51.728;5.248;2024-03-02T13:51:49;3.70;;;0.80;;
78891;SDS011;68368;51.728;5.248;2024-03-02T13:53:54;4.50;;;1.00;;
78891;SDS011;68368;51.728;5.248;2024-03-02T13:55:59;3.80;;;1.00;;
78891;SDS011;68368;51.728;5.248;2024-03-02T13:58:05;2.80;;;0.80;;
78891;SDS011;68368;51.728;5.248;2024-03-02T14:00:12;4.00;;;1.10;;
78891;SDS011;68368;51.728;5.248;2024-03-02T14:02:19;3.10;;;1.00;;
78891;SDS011;68368;51.728;5.248;2024-03-02T14:04:24;3.10;;;1.00;;
78891;SDS011;68368;51.728;5.248;2024-03-02T14:06:29;4.00;;;0.80;;
78891;SDS011;68368;51.728;5.248;2024-03-02T14:08:34;4.40;;;0.80;;
78891;SDS011;68368;51.728;5.248;2024-03-02T14:10:39;3.20;;;1.10;;
78891;SDS011;68368;51.728;5.248;2024-03-02T14:12:44;2.10;;;0.70;;
78891;SDS011;68368;51.728;5.248;2024-03-02T14:14:49;3.30;;;0.90;;
78891;SDS011;68368;51.728;5.248;2024-03-02T14:16:55;6.70;;;1.10;;
78891;SDS011;68368;51.728;5.248;2024-03-02T14:19:01;3.60;;;0.70;;
78891;SDS011;68368;51.728;5.248;2024-03-02T14:21:07;4.00;;;1.20;;
78891;SDS011;68368;51.728;5.248;2024-03-02T14:23:13;2.00;;;0.80;;
78891;SDS011;68368;51.728;5.248;2024-03-02T14:25:18;2.80;;;0.80;;
78891;SDS011;68368;51.728;5.248;2024-03-02T14:27:23;3.80;;;0.80;;
78891;SDS011;68368;51.728;5.248;2024-03-02T14:29:28;3.80;;;1.20;;
78891;SDS011;68368;51.728;5.248;2024-03-02T14:31:34;2.50;;;0.70;;
78891;SDS011;68368;51.728;5.248;2024-03-02T14:33:39;3.00;;;1.10;;
78891;SDS011;68368;51.728;5.248;2024-03-02T14:35:46;2.30;;;0.60;;
78891;SDS011;68368;51.728;5.248;2024-03-02T14:37:51;3.60;;;1.10;;
78891;SDS011;68368;51.728;5.248;2024-03-02T14:39:56;4.00;;;0.90;;
78891;SDS011;68368;51.728;5.248;2024-03-02T14:42:01;3.10;;;0.90;;
78891;SDS011;68368;51.728;5.248;2024-03-02T14:44:09;3.50;;;1.00;;
78891;SDS011;68368;51.728;5.248;2024-03-02T14:46:14;3.60;;;0.80;;
78891;SDS011;68368;51.728;5.248;2024-03-02T14:48:20;3.20;;;0.80;;
78891;SDS011;68368;51.728;5.248;2024-03-02T14:50:28;3.00;;;1.20;;
78891;SDS011;68368;51.728;5.248;2024-03-02T14:52:35;1.90;;;0.60;;
78891;SDS011;68368;51.728;5.248;2024-03-02T14:54:40;3.40;;;0.70;;
78891;SDS011;68368;51.728;5.248;2024-03-02T14:56:45;4.00;;;0.70;;
78891;SDS011;68368;51.728;5.248;2024-03-02T14:58:50;2.60;;;0.90;;
78891;SDS011;68368;51.728;5.248;2024-03-02T15:00:54;2.30;;;0.70;;
78891;SDS011;68368;51.728;5.248;2024-03-02T15:03:02;2.40;;;0.70;;
78891;SDS011;68368;51.728;5.248;2024-03-02T15:05:09;3.20;;;1.00;;
78891;SDS011;68368;51.728;5.248;2024-03-02T15:07:13;3.60;;;0.90;;
78891;SDS011;68368;51.728;5.248;2024-03-02T15:09:18;2.70;;;0.50;;
78891;SDS011;68368;51.728;5.248;2024-03-02T15:11:24;3.60;;;1.10;;
78891;SDS011;68368;51.728;5.248;2024-03-02T15:13:29;1.80;;;0.60;;
78891;SDS011;68368;51.728;5.248;2024-03-02T15:15:34;3.30;;;0.70;;
78891;SDS011;68368;51.728;5.248;2024-03-02T15:17:39;4.20;;;1.00;;
78891;SDS011;68368;51.728;5.248;2024-03-02T15:19:45;2.00;;;0.60;;
78891;SDS011;68368;51.728;5.248;2024-03-02T15:21:50;2.00;;;0.60;;
78891;SDS011;68368;51.728;5.248;2024-03-02T15:23:55;3.50;;;0.90;;
78891;SDS011;68368;51.728;5.248;2024-03-02T15:26:00;2.90;;;0.60;;
78891;SDS011;68368;51.728;5.248;2024-03-02T15:28:09;2.90;;;0.80;;
78891;SDS011;68368;51.728;5.248;2024-03-02T15:30:14;4.00;;;0.90;;
78891;SDS011;68368;51.728;5.248;2024-03-02T15:32:21;2.20;;;0.90;;
78891;SDS011;68368;51.728;5.248;2024-03-02T15:34:29;2.20;;;0.80;;
78891;SDS011;68368;51.728;5.248;2024-03-02T15:36:34;4.90;;;1.00;;
78891;SDS011;68368;51.728;5.248;2024-03-02T15:38:39;2.20;;;0.90;;
78891;SDS011;68368;51.728;5.248;2024-03-02T15:40:45;2.10;;;0.50;;
78891;SDS011;68368;51.728;5.248;2024-03-02T15:42:50;2.80;;;0.80;;
78891;SDS011;68368;51.728;5.248;2024-03-02T15:44:55;1.70;;;0.70;;
78891;SDS011;68368;51.728;5.248;2024-03-02T15:47:00;1.80;;;0.50;;
78891;SDS011;68368;51.728;5.248;2024-03-02T15:49:08;2.50;;;0.80;;
78891;SDS011;68368;51.728;5.248;2024-03-02T15:51:13;2.20;;;0.70;;
78891;SDS011;68368;51.728;5.248;2024-03-02T15:53:18;3.10;;;0.70;;
78891;SDS011;68368;51.728;5.248;2024-03-02T15:55:23;2.50;;;0.70;;
78891;SDS011;68368;51.728;5.248;2024-03-02T15:57:28;2.60;;;0.70;;
78891;SDS011;68368;51.728;5.248;2024-03-02T15:59:34;3.30;;;0.90;;
78891;SDS011;68368;51.728;5.248;2024-03-02T16:01:39;2.20;;;0.70;;
78891;SDS011;68368;51.728;5.248;2024-03-02T16:03:45;2.30;;;0.60;;
78891;SDS011;68368;51.728;5.248;2024-03-02T16:05:50;2.70;;;0.60;;
78891;SDS011;68368;51.728;5.248;2024-03-02T16:07:57;1.40;;;0.50;;
78891;SDS011;68368;51.728;5.248;2024-03-02T16:10:02;1.60;;;0.70;;
78891;SDS011;68368;51.728;5.248;2024-03-02T16:12:08;2.20;;;0.80;;
78891;SDS011;68368;51.728;5.248;2024-03-02T16:14:16;1.70;;;0.60;;
78891;SDS011;68368;51.728;5.248;2024-03-02T16:16:21;2.30;;;0.60;;
78891;SDS011;68368;51.728;5.248;2024-03-02T16:18:26;3.00;;;0.70;;
78891;SDS011;68368;51.728;5.248;2024-03-02T16:20:31;2.20;;;0.70;;
78891;SDS011;68368;51.728;5.248;2024-03-02T16:22:36;1.40;;;0.60;;
78891;SDS011;68368;51.728;5.248;2024-03-02T16:24:41;1.70;;;0.70;;
78891;SDS011;68368;51.728;5.248;2024-03-02T16:26:46;1.80;;;0.90;;
78891;SDS011;68368;51.728;5.248;2024-03-02T16:28:52;1.80;;;0.50;;
78891;SDS011;68368;51.728;5.248;2024-03-02T16:30:57;2.40;;;0.60;;
78891;SDS011;68368;51.728;5.248;2024-03-02T16:33:04;1.30;;;0.70;;
78891;SDS011;68368;51.728;5.248;2024-03-02T16:35:09;1.20;;;0.60;;
78891;SDS011;68368;51.728;5.248;2024-03-02T16:37:14;1.00;;;0.50;;
78891;SDS011;68368;51.728;5.248;2024-03-02T16:39:19;2.30;;;0.80;;
78891;SDS011;68368;51.728;5.248;2024-03-02T16:41:25;1.60;;;0.60;;
78891;SDS011;68368;51.728;5.248;2024-03-02T16:43:30;1.50;;;0.70;;
78891;SDS011;68368;51.728;5.248;2024-03-02T16:45:35;2.10;;;0.70;;
78891;SDS011;68368;51.728;5.248;2024-03-02T16:47:40;1.80;;;0.60;;
78891;SDS011;68368;51.728;5.248;2024-03-02T16:49:46;1.90;;;0.60;;
78891;SDS011;68368;51.728;5.248;2024-03-02T16:51:52;1.60;;;0.70;;
78891;SDS011;68368;51.728;5.248;2024-03-02T16:53:57;1.60;;;0.60;;
78891;SDS011;68368;51.728;5.248;2024-03-02T16:56:02;2.10;;;0.80;;
78891;SDS011;68368;51.728;5.248;2024-03-02T16:58:08;1.20;;;0.60;;
78891;SDS011;68368;51.728;5.248;2024-03-02T17:00:14;2.40;;;0.70;;
78891;SDS011;68368;51.728;5.248;2024-03-02T17:02:20;3.50;;;0.70;;
78891;SDS011;68368;51.728;5.248;2024-03-02T17:04:25;1.90;;;0.90;;
78891;SDS011;68368;51.728;5.248;2024-03-02T17:06:31;1.60;;;0.60;;
78891;SDS011;68368;51.728;5.248;2024-03-02T17:08:38;2.00;;;0.70;;
78891;SDS011;68368;51.728;5.248;2024-03-02T17:10:43;2.80;;;0.90;;
78891;SDS011;68368;51.728;5.248;2024-03-02T17:12:48;1.50;;;0.80;;
78891;SDS011;68368;51.728;5.248;2024-03-02T17:14:54;1.70;;;0.80;;
78891;SDS011;68368;51.728;5.248;2024-03-02T17:17:00;2.30;;;0.90;;
78891;SDS011;68368;51.728;5.248;2024-03-02T17:19:04;3.00;;;0.90;;
78891;SDS011;68368;51.728;5.248;2024-03-02T17:21:10;2.20;;;0.90;;
78891;SDS011;68368;51.728;5.248;2024-03-02T17:23:14;2.80;;;0.80;;
78891;SDS011;68368;51.728;5.248;2024-03-02T17:25:20;2.30;;;0.80;;
78891;SDS011;68368;51.728;5.248;2024-03-02T17:27:25;4.80;;;1.10;;
78891;SDS011;68368;51.728;5.248;2024-03-02T17:29:31;2.60;;;0.90;;
78891;SDS011;68368;51.728;5.248;2024-03-02T17:31:37;3.00;;;0.90;;
78891;SDS011;68368;51.728;5.248;2024-03-02T17:33:42;2.40;;;1.00;;
78891;SDS011;68368;51.728;5.248;2024-03-02T17:35:49;2.70;;;1.00;;
78891;SDS011;68368;51.728;5.248;2024-03-02T17:37:54;2.00;;;0.80;;
78891;SDS011;68368;51.728;5.248;2024-03-02T17:39:59;1.80;;;0.90;;
78891;SDS011;68368;51.728;5.248;2024-03-02T17:42:05;3.10;;;1.10;;
78891;SDS011;68368;51.728;5.248;2024-03-02T17:44:10;1.60;;;1.00;;
78891;SDS011;68368;51.728;5.248;2024-03-02T17:46:15;2.50;;;1.00;;
78891;SDS011;68368;51.728;5.248;2024-03-02T17:48:20;1.60;;;1.00;;
78891;SDS011;68368;51.728;5.248;2024-03-02T17:50:28;1.80;;;0.90;;
78891;SDS011;68368;51.728;5.248;2024-03-02T17:52:33;1.90;;;0.90;;
78891;SDS011;68368;51.728;5.248;2024-03-02T17:54:40;2.10;;;1.00;;
78891;SDS011;68368;51.728;5.248;2024-03-02T17:56:45;1.60;;;1.00;;
78891;SDS011;68368;51.728;5.248;2024-03-02T17:58:50;2.20;;;1.00;;
78891;SDS011;68368;51.728;5.248;2024-03-02T18:00:56;1.70;;;0.80;;
78891;SDS011;68368;51.728;5.248;2024-03-02T18:03:00;1.70;;;0.90;;
78891;SDS011;68368;51.728;5.248;2024-03-02T18:05:06;2.50;;;1.20;;
78891;SDS011;68368;51.728;5.248;2024-03-02T18:07:12;1.70;;;1.00;;
78891;SDS011;68368;51.728;5.248;2024-03-02T18:09:17;3.70;;;1.50;;
78891;SDS011;68368;51.728;5.248;2024-03-02T18:11:22;2.30;;;1.30;;
78891;SDS011;68368;51.728;5.248;2024-03-02T18:13:27;2.70;;;1.00;;
78891;SDS011;68368;51.728;5.248;2024-03-02T18:15:32;2.10;;;1.10;;
78891;SDS011;68368;51.728;5.248;2024-03-02T18:17:39;2.30;;;1.10;;
78891;SDS011;68368;51.728;5.248;2024-03-02T18:19:44;3.60;;;1.40;;
78891;SDS011;68368;51.728;5.248;2024-03-02T18:21:52;1.80;;;1.00;;
78891;SDS011;68368;51.728;5.248;2024-03-02T18:23:57;2.90;;;1.20;;
78891;SDS011;68368;51.728;5.248;2024-03-02T18:26:04;2.00;;;1.10;;
78891;SDS011;68368;51.728;5.248;2024-03-02T18:28:10;2.80;;;1.20;;
78891;SDS011;68368;51.728;5.248;2024-03-02T18:30:17;2.70;;;1.20;;
78891;SDS011;68368;51.728;5.248;2024-03-02T18:32:23;2.70;;;1.30;;
78891;SDS011;68368;51.728;5.248;2024-03-02T18:34:28;2.50;;;1.30;;
78891;SDS011;68368;51.728;5.248;2024-03-02T18:36:34;3.00;;;1.10;;
78891;SDS011;68368;51.728;5.248;2024-03-02T18:38:39;3.00;;;1.40;;
78891;SDS011;68368;51.728;5.248;2024-03-02T18:40:45;3.40;;;1.50;;
78891;SDS011;68368;51.728;5.248;2024-03-02T18:42:50;2.30;;;1.20;;
78891;SDS011;68368;51.728;5.248;2024-03-02T18:44:54;2.80;;;1.30;;
78891;SDS011;68368;51.728;5.248;2024-03-02T18:47:03;3.40;;;1.40;;
78891;SDS011;68368;51.728;5.248;2024-03-02T18:49:09;3.70;;;1.40;;
78891;SDS011;68368;51.728;5.248;2024-03-02T18:51:14;4.30;;;1.50;;
78891;SDS011;68368;51.728;5.248;2024-03-02T18:53:21;2.00;;;1.20;;
78891;SDS011;68368;51.728;5.248;2024-03-02T18:55:26;4.60;;;1.30;;
78891;SDS011;68368;51.728;5.248;2024-03-02T18:57:32;3.30;;;1.60;;
78891;SDS011;68368;51.728;5.248;2024-03-02T18:59:37;1.80;;;1.00;;
78891;SDS011;68368;51.728;5.248;2024-03-02T19:01:42;3.00;;;1.20;;
78891;SDS011;68368;51.728;5.248;2024-03-02T19:03:46;2.60;;;1.50;;
78891;SDS011;68368;51.728;5.248;2024-03-02T19:05:51;2.40;;;1.10;;
78891;SDS011;68368;51.728;5.248;2024-03-02T19:07:56;2.40;;;1.40;;
78891;SDS011;68368;51.728;5.248;2024-03-02T19:10:03;2.80;;;1.20;;
78891;SDS011;68368;51.728;5.248;2024-03-02T19:12:09;2.60;;;1.50;;
78891;SDS011;68368;51.728;5.248;2024-03-02T19:14:14;4.10;;;1.10;;
78891;SDS011;68368;51.728;5.248;2024-03-02T19:16:19;2.30;;;1.30;;
78891;SDS011;68368;51.728;5.248;2024-03-02T19:18:26;3.90;;;1.60;;
78891;SDS011;68368;51.728;5.248;2024-03-02T19:22:35;2.30;;;1.30;;
78891;SDS011;68368;51.728;5.248;2024-03-02T19:24:40;2.80;;;1.40;;
78891;SDS011;68368;51.728;5.248;2024-03-02T19:26:45;2.40;;;1.60;;
78891;SDS011;68368;51.728;5.248;2024-03-02T19:28:50;4.60;;;1.20;;
78891;SDS011;68368;51.728;5.248;2024-03-02T19:30:58;2.70;;;1.50;;
78891;SDS011;68368;51.728;5.248;2024-03-02T19:33:04;7.20;;;1.50;;
78891;SDS011;68368;51.728;5.248;2024-03-02T19:35:09;1.60;;;1.20;;
78891;SDS011;68368;51.728;5.248;2024-03-02T19:37:16;2.70;;;1.30;;
78891;SDS011;68368;51.728;5.248;2024-03-02T19:39:22;2.90;;;1.30;;
78891;SDS011;68368;51.728;5.248;2024-03-02T19:41:27;4.20;;;1.50;;
78891;SDS011;68368;51.728;5.248;2024-03-02T19:43:32;3.20;;;1.50;;
78891;SDS011;68368;51.728;5.248;2024-03-02T19:45:37;3.40;;;1.60;;
78891;SDS011;68368;51.728;5.248;2024-03-02T19:47:42;3.00;;;1.50;;
78891;SDS011;68368;51.728;5.248;2024-03-02T19:49:47;2.60;;;1.50;;
78891;SDS011;68368;51.728;5.248;2024-03-02T19:51:52;2.30;;;1.10;;
78891;SDS011;68368;51.728;5.248;2024-03-02T19:53:57;2.60;;;1.50;;
78891;SDS011;68368;51.728;5.248;2024-03-02T19:56:02;2.20;;;1.50;;
78891;SDS011;68368;51.728;5.248;2024-03-02T19:58:09;2.20;;;1.40;;
78891;SDS011;68368;51.728;5.248;2024-03-02T20:02:20;2.00;;;1.30;;
78891;SDS011;68368;51.728;5.248;2024-03-02T20:04:27;2.20;;;1.40;;
78891;SDS011;68368;51.728;5.248;2024-03-02T20:06:33;2.40;;;1.50;;
78891;SDS011;68368;51.728;5.248;2024-03-02T20:08:38;2.20;;;1.50;;
78891;SDS011;68368;51.728;5.248;2024-03-02T20:10:43;2.70;;;1.20;;
78891;SDS011;68368;51.728;5.248;2024-03-02T20:12:48;3.60;;;1.60;;
78891;SDS011;68368;51.728;5.248;2024-03-02T20:14:53;3.40;;;1.20;;
78891;SDS011;68368;51.728;5.248;2024-03-02T20:16:59;2.20;;;1.60;;
78891;SDS011;68368;51.728;5.248;2024-03-02T20:19:04;2.80;;;1.50;;
78891;SDS011;68368;51.728;5.248;2024-03-02T20:21:09;2.70;;;1.30;;
78891;SDS011;68368;51.728;5.248;2024-03-02T20:23:17;4.10;;;1.60;;
78891;SDS011;68368;51.728;5.248;2024-03-02T20:25:22;6.40;;;1.60;;
78891;SDS011;68368;51.728;5.248;2024-03-02T20:27:27;3.80;;;1.60;;
78891;SDS011;68368;51.728;5.248;2024-03-02T20:29:32;2.90;;;1.70;;
78891;SDS011;68368;51.728;5.248;2024-03-02T20:31:39;3.60;;;1.90;;
78891;SDS011;68368;51.728;5.248;2024-03-02T20:33:44;2.10;;;1.40;;
78891;SDS011;68368;51.728;5.248;2024-03-02T20:35:49;3.20;;;1.80;;
78891;SDS011;68368;51.728;5.248;2024-03-02T20:37:54;4.60;;;1.80;;
78891;SDS011;68368;51.728;5.248;2024-03-02T20:40:00;3.50;;;1.50;;
78891;SDS011;68368;51.728;5.248;2024-03-02T20:42:05;4.00;;;1.50;;
78891;SDS011;68368;51.728;5.248;2024-03-02T20:44:10;2.70;;;1.60;;
78891;SDS011;68368;51.728;5.248;2024-03-02T20:46:16;1.90;;;1.10;;
78891;SDS011;68368;51.728;5.248;2024-03-02T20:48:21;2.70;;;1.80;;
78891;SDS011;68368;51.728;5.248;2024-03-02T20:50:26;3.10;;;1.70;;
78891;SDS011;68368;51.728;5.248;2024-03-02T20:52:31;2.90;;;1.80;;
78891;SDS011;68368;51.728;5.248;2024-03-02T20:54:38;2.80;;;1.30;;
78891;SDS011;68368;51.728;5.248;2024-03-02T20:56:44;3.20;;;1.60;;
78891;SDS011;68368;51.728;5.248;2024-03-02T20:58:49;4.00;;;1.50;;
78891;SDS011;68368;51.728;5.248;2024-03-02T21:00:54;3.00;;;1.50;;
78891;SDS011;68368;51.728;5.248;2024-03-02T21:02:59;2.50;;;1.50;;
78891;SDS011;68368;51.728;5.248;2024-03-02T21:05:05;2.90;;;1.80;;
78891;SDS011;68368;51.728;5.248;2024-03-02T21:07:11;2.40;;;1.20;;
78891;SDS011;68368;51.728;5.248;2024-03-02T21:09:16;2.00;;;1.40;;
78891;SDS011;68368;51.728;5.248;2024-03-02T21:11:21;3.00;;;1.70;;
78891;SDS011;68368;51.728;5.248;2024-03-02T21:13:26;3.40;;;1.90;;
78891;SDS011;68368;51.728;5.248;2024-03-02T21:15:32;4.30;;;1.50;;
78891;SDS011;68368;51.728;5.248;2024-03-02T21:17:37;4.50;;;2.20;;
78891;SDS011;68368;51.728;5.248;2024-03-02T21:19:42;5.20;;;1.90;;
78891;SDS011;68368;51.728;5.248;2024-03-02T21:21:47;3.90;;;2.00;;
78891;SDS011;68368;51.728;5.248;2024-03-02T21:23:52;2.50;;;1.60;;
78891;SDS011;68368;51.728;5.248;2024-03-02T21:25:59;2.20;;;1.50;;
78891;SDS011;68368;51.728;5.248;2024-03-02T21:28:05;4.00;;;1.60;;
78891;SDS011;68368;51.728;5.248;2024-03-02T21:30:10;3.50;;;1.90;;
78891;SDS011;68368;51.728;5.248;2024-03-02T21:32:17;2.50;;;1.60;;
78891;SDS011;68368;51.728;5.248;2024-03-02T21:34:22;2.90;;;1.70;;
78891;SDS011;68368;51.728;5.248;2024-03-02T21:36:28;4.50;;;1.70;;
78891;SDS011;68368;51.728;5.248;2024-03-02T21:38:33;2.40;;;1.50;;
78891;SDS011;68368;51.728;5.248;2024-03-02T21:40:40;2.70;;;1.70;;
78891;SDS011;68368;51.728;5.248;2024-03-02T21:42:45;2.50;;;1.70;;
78891;SDS011;68368;51.728;5.248;2024-03-02T21:44:51;2.50;;;1.60;;
78891;SDS011;68368;51.728;5.248;2024-03-02T21:46:56;2.20;;;1.30;;
78891;SDS011;68368;51.728;5.248;2024-03-02T21:49:01;2.10;;;1.40;;
78891;SDS011;68368;51.728;5.248;2024-03-02T21:51:07;2.60;;;1.40;;
78891;SDS011;68368;51.728;5.248;2024-03-02T21:53:17;2.30;;;1.20;;
78891;SDS011;68368;51.728;5.248;2024-03-02T21:55:25;2.10;;;1.40;;
78891;SDS011;68368;51.728;5.248;2024-03-02T21:57:30;2.80;;;1.60;;
78891;SDS011;68368;51.728;5.248;2024-03-02T21:59:35;2.30;;;1.40;;
78891;SDS011;68368;51.728;5.248;2024-03-02T22:01:40;2.60;;;1.40;;
78891;SDS011;68368;51.728;5.248;2024-03-02T22:03:45;3.40;;;1.70;;
78891;SDS011;68368;51.728;5.248;2024-03-02T22:05:50;2.20;;;1.50;;
78891;SDS011;68368;51.728;5.248;2024-03-02T22:07:55;2.90;;;1.50;;
78891;SDS011;68368;51.728;5.248;2024-03-02T22:10:00;2.90;;;1.50;;
78891;SDS011;68368;51.728;5.248;2024-03-02T22:12:05;2.90;;;1.50;;
78891;SDS011;68368;51.728;5.248;2024-03-02T22:14:10;2.60;;;1.30;;
78891;SDS011;68368;51.728;5.248;2024-03-02T22:16:16;1.90;;;1.30;;
78891;SDS011;68368;51.728;5.248;2024-03-02T22:18:21;2.40;;;1.30;;
78891;SDS011;68368;51.728;5.248;2024-03-02T22:20:26;5.10;;;1.80;;
78891;SDS011;68368;51.728;5.248;2024-03-02T22:22:31;2.00;;;1.10;;
78891;SDS011;68368;51.728;5.248;2024-03-02T22:24:36;3.00;;;1.30;;
78891;SDS011;68368;51.728;5.248;2024-03-02T22:26:43;1.80;;;1.10;;
78891;SDS011;68368;51.728;5.248;2024-03-02T22:28:48;2.30;;;1.30;;
78891;SDS011;68368;51.728;5.248;2024-03-02T22:30:53;2.40;;;1.30;;
78891;SDS011;68368;51.728;5.248;2024-03-02T22:32:58;2.00;;;1.30;;
78891;SDS011;68368;51.728;5.248;2024-03-02T22:35:03;2.40;;;1.20;;
78891;SDS011;68368;51.728;5.248;2024-03-02T22:37:11;2.90;;;1.20;;
78891;SDS011;68368;51.728;5.248;2024-03-02T22:39:19;3.40;;;1.50;;
78891;SDS011;68368;51.728;5.248;2024-03-02T22:41:24;2.00;;;1.50;;
78891;SDS011;68368;51.728;5.248;2024-03-02T22:43:29;3.30;;;1.80;;
78891;SDS011;68368;51.728;5.248;2024-03-02T22:45:34;2.00;;;1.50;;
78891;SDS011;68368;51.728;5.248;2024-03-02T22:47:39;2.70;;;1.60;;
78891;SDS011;68368;51.728;5.248;2024-03-02T22:49:44;2.70;;;1.60;;
78891;SDS011;68368;51.728;5.248;2024-03-02T22:51:49;5.40;;;2.00;;
78891;SDS011;68368;51.728;5.248;2024-03-02T22:53:54;5.10;;;1.90;;
78891;SDS011;68368;51.728;5.248;2024-03-02T22:55:59;2.80;;;1.80;;
78891;SDS011;68368;51.728;5.248;2024-03-02T22:58:04;4.30;;;2.00;;
78891;SDS011;68368;51.728;5.248;2024-03-02T23:00:10;3.60;;;1.80;;
78891;SDS011;68368;51.728;5.248;2024-03-02T23:02:16;2.90;;;1.60;;
78891;SDS011;68368;51.728;5.248;2024-03-02T23:04:21;4.70;;;1.90;;
78891;SDS011;68368;51.728;5.248;2024-03-02T23:06:26;2.80;;;1.70;;
78891;SDS011;68368;51.728;5.248;2024-03-02T23:08:31;4.00;;;1.80;;